Time;durP1;ratioP1;P1;durP2;ratioP2;P2;SDS_P1;SDS_P2;PMS_P1;PMS_P2;Temp;Humidity;BMP_temperature;BMP_pressure;BME280_temperature;BME280_humidity;BME280_pressure;Samples;Min_cycle;Max_cycle;Signal;HPM_P1;HPM_P2
2021/03/29 00:03:13;;;;;;;20.03;6.97;;;;;;;7.86;67.99;101811.44;4906568;59;1138435;-76
2021/03/29 00:08:24;;;;;;;15.20;6.10;;;;;;;7.85;68.00;101803.14;4925062;59;1138277;-73
2021/03/29 00:13:31;;;;;;;20.32;5.67;;;;;;;7.86;68.05;101798.73;4850110;59;1136728;-75
2021/03/29 00:18:37;;;;;;;14.43;3.80;;;;;;;7.89;68.41;101801.23;4906485;59;1138831;-75
2021/03/29 00:23:43;;;;;;;11.17;4.33;;;;;;;7.89;69.14;101798.13;4907090;59;1140438;-77
2021/03/29 00:28:48;;;;;;;13.35;4.05;;;;;;;7.91;68.97;101796.28;4925318;59;1136744;-78
2021/03/29 00:33:56;;;;;;;12.60;3.92;;;;;;;7.93;68.86;101791.80;4847897;59;1138782;-75
2021/03/29 00:39:04;;;;;;;13.37;5.00;;;;;;;7.95;69.37;101792.56;4906253;59;1139105;-77
2021/03/29 00:44:11;;;;;;;13.13;4.83;;;;;;;7.92;69.12;101790.09;4906362;59;1138432;-79
2021/03/29 00:49:17;;;;;;;15.90;4.93;;;;;;;7.92;69.77;101795.83;4906501;59;1138710;-75
2021/03/29 00:54:24;;;;;;;9.97;5.00;;;;;;;7.88;69.80;101803.00;4907007;59;1136271;-78
2021/03/29 00:59:30;;;;;;;17.27;5.70;;;;;;;7.90;69.49;101798.53;4907372;59;1136759;-79
2021/03/29 01:04:36;;;;;;;17.67;5.27;;;;;;;7.87;69.36;101797.34;4913597;59;1138705;-78
2021/03/29 01:09:42;;;;;;;13.30;4.80;;;;;;;7.89;69.21;101790.69;4938559;58;1136708;-77
2021/03/29 01:14:51;;;;;;;16.82;6.92;;;;;;;7.90;69.31;101786.67;4938252;59;1138620;-78
2021/03/29 01:20:22;;;;;;;16.50;5.33;;;;;;;7.89;69.24;101791.55;4938102;59;1138779;-77
2021/03/29 01:25:45;;;;;;;23.43;5.07;;;;;;;7.90;69.35;101791.94;4937685;59;1138364;-77
2021/03/29 01:30:52;;;;;;;14.40;5.50;;;;;;;7.92;69.31;101797.14;4938195;59;1138823;-76
2021/03/29 01:36:00;;;;;;;13.70;5.57;;;;;;;7.90;69.21;101789.77;4938288;59;1136231;-77
2021/03/29 01:41:08;;;;;;;8.43;3.50;;;;;;;7.92;69.39;101783.97;4937638;58;1138319;-78
2021/03/29 01:46:17;;;;;;;7.53;3.57;;;;;;;7.91;69.30;101788.38;4938042;59;1136960;-76
2021/03/29 01:51:24;;;;;;;15.33;4.90;;;;;;;7.93;69.37;101787.00;4938077;59;1136902;-75
2021/03/29 01:56:29;;;;;;;18.07;5.17;;;;;;;7.93;69.37;101789.17;4937808;59;1138778;-76
2021/03/29 02:01:35;;;;;;;11.70;4.83;;;;;;;7.92;69.41;101790.55;4937840;59;1138774;-77
2021/03/29 02:06:43;;;;;;;11.55;5.40;;;;;;;7.94;69.22;101786.93;4918890;59;1138917;-75
2021/03/29 02:11:50;;;;;;;9.33;4.00;;;;;;;7.95;69.26;101787.75;4789278;60;1138896;-77
2021/03/29 02:17:00;;;;;;;8.68;3.55;;;;;;;7.95;69.42;101782.02;4868142;59;1136232;-77
2021/03/29 02:22:06;;;;;;;11.30;4.53;;;;;;;7.97;69.31;101784.59;4898036;59;1136756;-75
2021/03/29 02:27:11;;;;;;;11.97;4.53;;;;;;;7.96;69.27;101786.83;4843288;59;1136468;-78
2021/03/29 02:32:17;;;;;;;14.47;5.10;;;;;;;7.97;69.34;101782.81;4835393;59;1138290;-77
2021/03/29 02:37:23;;;;;;;11.03;2.97;;;;;;;7.99;69.30;101780.11;4844025;59;1139002;-78
2021/03/29 02:42:29;;;;;;;12.77;4.73;;;;;;;8.00;69.35;101787.95;4843963;59;1138923;-76
2021/03/29 02:47:36;;;;;;;14.97;4.60;;;;;;;8.03;69.18;101786.48;4844123;59;1138488;-77
2021/03/29 02:52:52;;;;;;;9.55;3.90;;;;;;;8.00;69.27;101780.04;4862267;59;1136676;-77
2021/03/29 02:58:00;;;;;;;11.07;3.73;;;;;;;8.06;69.20;101786.81;4837338;59;1136531;-74
2021/03/29 03:03:07;;;;;;;8.17;4.27;;;;;;;8.02;69.98;101783.46;4884873;59;1138778;-76
2021/03/29 03:08:13;;;;;;;6.20;2.93;;;;;;;8.01;70.12;101782.21;4916049;59;1136513;-79
2021/03/29 03:13:19;;;;;;;12.93;4.13;;;;;;;8.00;70.34;101787.95;4916120;59;1136710;-75
2021/03/29 03:18:24;;;;;;;15.95;4.05;;;;;;;7.96;70.19;101786.37;4915765;59;1138346;-74
2021/03/29 03:23:30;;;;;;;8.63;4.17;;;;;;;7.95;70.83;101787.75;4915999;59;1138309;-79
2021/03/29 03:28:36;;;;;;;14.10;3.72;;;;;;;7.92;70.78;101793.19;4915714;58;1136207;-73
2021/03/29 03:33:42;;;;;;;10.97;3.90;;;;;;;7.91;70.93;101787.06;4915984;59;1138739;-75
2021/03/29 03:38:50;;;;;;;12.55;4.62;;;;;;;7.88;70.92;101786.34;4916050;59;1148012;-78
2021/03/29 03:43:57;;;;;;;15.60;4.50;;;;;;;7.87;70.88;101792.08;4915826;58;1138406;-75
2021/03/29 03:49:13;;;;;;;8.70;3.60;;;;;;;7.88;71.04;101792.93;4915719;59;1138402;-77
2021/03/29 03:54:21;;;;;;;10.33;3.83;;;;;;;7.85;71.89;101799.65;4915982;59;1136805;-74
2021/03/29 03:59:26;;;;;;;10.43;4.83;;;;;;;7.81;72.10;101797.61;4915782;59;1138294;-74
2021/03/29 04:04:32;;;;;;;17.30;4.50;;;;;;;7.76;72.15;101796.98;4915725;59;1138892;-77
2021/03/29 04:14:54;;;;;;;10.55;4.50;;;;;;;7.68;72.92;101805.22;4872696;59;1136447;-79
2021/03/29 04:19:59;;;;;;;13.20;4.70;;;;;;;7.65;73.36;101811.08;4915758;59;1138507;-78
2021/03/29 04:25:08;;;;;;;12.83;4.13;;;;;;;7.64;72.95;101807.59;4915665;59;1138772;-75
2021/03/29 04:30:14;;;;;;;11.53;4.73;;;;;;;7.63;73.02;101810.32;4915659;59;1138491;-78
2021/03/29 04:35:23;;;;;;;12.57;5.03;;;;;;;7.62;73.41;101806.83;4915589;59;1138528;-78
2021/03/29 04:40:29;;;;;;;11.77;5.43;;;;;;;7.62;73.49;101809.47;4915754;59;1138556;-77
2021/03/29 04:45:35;;;;;;;12.50;4.90;;;;;;;7.58;73.64;101801.77;4915737;59;1138698;-76
2021/03/29 04:50:40;;;;;;;17.57;6.43;;;;;;;7.58;73.84;101809.66;4915745;59;1138466;-76
2021/03/29 04:55:46;;;;;;;7.83;4.53;;;;;;;7.56;74.18;101807.55;4915711;59;1138933;-75
2021/03/29 05:00:52;;;;;;;17.07;5.33;;;;;;;7.53;74.48;101803.27;4915884;59;1136365;-78
2021/03/29 05:05:57;;;;;;;7.87;3.98;;;;;;;7.52;74.62;101806.83;4915677;59;1138518;-76
2021/03/29 05:11:03;;;;;;;18.80;6.13;;;;;;;7.52;75.18;101809.45;4915869;59;1136447;-75
2021/03/29 05:16:08;;;;;;;15.47;5.37;;;;;;;7.52;75.11;101815.18;4915611;59;1138855;-78
2021/03/29 05:21:14;;;;;;;14.47;4.73;;;;;;;7.52;75.09;101813.41;4915516;59;1138443;-76
2021/03/29 05:26:19;;;;;;;8.90;4.53;;;;;;;7.51;75.35;101814.33;4900078;58;1138953;-77
2021/03/29 05:31:25;;;;;;;10.30;4.93;;;;;;;7.51;75.68;101823.54;4907734;58;1136410;-79
2021/03/29 05:36:30;;;;;;;10.97;3.80;;;;;;;7.51;75.81;101819.59;4885914;59;1138496;-75
2021/03/29 05:41:40;;;;;;;11.87;5.07;;;;;;;7.51;76.05;101821.37;4884648;58;1138366;-75
2021/03/29 05:46:46;;;;;;;14.73;6.27;;;;;;;7.56;76.45;101815.45;4915050;59;1138901;-77
2021/03/29 05:51:53;;;;;;;18.77;6.17;;;;;;;7.59;76.32;101812.69;4803526;59;1138300;-77
2021/03/29 05:56:59;;;;;;;14.87;5.70;;;;;;;7.59;76.24;101814.86;4846474;59;1138512;-75
2021/03/29 06:02:05;;;;;;;12.37;5.73;;;;;;;7.64;76.43;101815.95;4842823;59;1138409;-77
2021/03/29 06:07:28;;;;;;;16.27;4.60;;;;;;;7.69;76.56;101817.92;4842567;59;1138799;-76
2021/03/29 06:12:50;;;;;;;10.80;5.00;;;;;;;7.78;77.17;101815.36;4846422;59;1138548;-75
2021/03/29 06:18:08;;;;;;;19.67;4.78;;;;;;;7.85;76.98;101824.67;4897674;58;1138927;-75
2021/03/29 06:23:13;;;;;;;12.70;4.50;;;;;;;7.90;76.54;101816.11;4906782;59;1138772;-74
2021/03/29 06:28:27;;;;;;;13.40;5.20;;;;;;;7.98;76.50;101821.41;4905821;59;1138854;-76
2021/03/29 06:33:33;;;;;;;12.37;6.63;;;;;;;8.06;76.31;101820.60;4902852;58;1138612;-74
2021/03/29 06:38:38;;;;;;;13.53;5.50;;;;;;;8.13;76.27;101823.33;4872213;59;1138444;-78
2021/03/29 06:43:44;;;;;;;17.13;5.53;;;;;;;8.24;76.22;101829.90;4907330;59;1138517;-75
2021/03/29 06:48:50;;;;;;;15.23;5.03;;;;;;;8.31;76.01;101828.20;4907680;59;1138768;-77
2021/03/29 06:54:11;;;;;;;15.35;5.58;;;;;;;8.40;76.12;101825.65;4907562;59;1138632;-76
2021/03/29 06:59:19;;;;;;;11.37;5.47;;;;;;;8.47;76.05;101837.59;4907625;59;1138815;-75
2021/03/29 07:04:27;;;;;;;14.57;5.20;;;;;;;8.59;76.02;101836.14;4905655;59;1138885;-74
2021/03/29 07:09:34;;;;;;;11.67;4.33;;;;;;;8.64;75.78;101835.47;4904853;59;1138789;-75
2021/03/29 07:14:39;;;;;;;17.23;5.13;;;;;;;8.69;75.57;101844.02;4889448;59;1138820;-77
2021/03/29 07:19:47;;;;;;;11.73;4.67;;;;;;;8.71;75.61;101837.71;4836134;59;1138841;-76
2021/03/29 07:24:54;;;;;;;9.03;3.52;;;;;;;8.77;75.77;101847.13;4836274;59;1138800;-73
2021/03/29 07:30:02;;;;;;;32.17;19.85;;;;;;;8.82;76.39;101855.67;4818681;59;1136708;-74
2021/03/29 07:35:09;;;;;;;15.80;5.30;;;;;;;8.87;76.36;101858.92;4876516;58;1140402;-78
2021/03/29 07:40:22;;;;;;;13.67;5.63;;;;;;;8.94;76.23;101864.77;4985810;58;1138728;-76
2021/03/29 07:45:39;;;;;;;;;;;;;;;8.98;76.71;101868.97;4989327;58;1138581;-78
2021/03/29 07:50:47;;;;;;;33.17;14.57;;;;;;;9.00;76.32;101871.93;4999762;58;974016;-75
2021/03/29 07:56:01;;;;;;;13.07;5.27;;;;;;;8.98;76.47;101882.16;4976073;58;1145776;-75
2021/03/29 08:01:07;;;;;;;10.28;4.10;;;;;;;8.95;76.63;101892.86;4861367;59;1138694;-74
2021/03/29 08:06:41;;;;;;;12.83;4.53;;;;;;;8.95;76.88;101905.59;4834084;60;1138569;-76
2021/03/29 08:12:07;;;;;;;9.48;3.02;;;;;;;8.93;77.18;101903.48;4853160;60;1138408;-75
2021/03/29 08:17:45;;;;;;;9.23;4.47;;;;;;;8.96;77.58;101907.77;4747472;60;1136517;-74
2021/03/29 08:23:27;;;;;;;5.37;3.10;;;;;;;9.01;77.89;101912.36;4755481;60;1136552;-75
2021/03/29 08:29:09;;;;;;;11.70;4.03;;;;;;;9.05;77.70;101907.30;4755840;60;1136551;-74
2021/03/29 08:34:18;;;;;;;11.90;3.73;;;;;;;9.07;77.78;101902.34;4892634;59;1138513;-74
2021/03/29 08:39:23;;;;;;;12.37;4.53;;;;;;;9.17;78.08;101908.86;4848208;60;1138784;-75
2021/03/29 08:44:31;;;;;;;12.20;4.00;;;;;;;9.24;78.16;101908.11;4848468;60;1138806;-76
2021/03/29 08:49:37;;;;;;;15.20;4.43;;;;;;;9.27;77.81;101903.15;4913728;59;1138994;-75
2021/03/29 08:54:58;;;;;;;14.03;4.27;;;;;;;9.34;77.97;101912.45;4840430;60;1138995;-76
2021/03/29 09:00:11;;;;;;;13.35;3.87;;;;;;;9.47;78.77;101914.89;4840646;60;1138862;-78
2021/03/29 09:05:19;;;;;;;13.15;5.15;;;;;;;9.58;78.38;101906.41;4835049;60;1138724;-77
2021/03/29 09:10:32;;;;;;;9.80;3.90;;;;;;;9.68;78.41;101913.77;4840219;60;1138446;-73
2021/03/29 09:15:42;;;;;;;7.37;3.62;;;;;;;9.82;78.95;101918.34;4840960;60;1136450;-75
2021/03/29 09:20:53;;;;;;;11.43;3.93;;;;;;;9.85;78.65;101917.72;4831965;60;1136777;-76
2021/03/29 09:26:03;;;;;;;9.48;4.33;;;;;;;9.93;79.39;101910.70;4769639;60;1138336;-78
2021/03/29 09:31:19;;;;;;;25.17;9.33;;;;;;;9.96;78.60;101912.33;4838351;59;1136523;-73
2021/03/29 09:36:25;;;;;;;15.50;4.93;;;;;;;9.98;78.88;101914.42;4802580;59;1138358;-74
2021/03/29 09:41:33;;;;;;;11.65;4.97;;;;;;;10.02;78.70;101912.02;4855532;59;1138593;-80
2021/03/29 09:46:39;;;;;;;10.87;3.80;;;;;;;10.08;78.85;101909.88;4866660;59;1140568;-77
2021/03/29 09:51:48;;;;;;;15.63;5.50;;;;;;;10.14;78.63;101912.68;4743456;59;1140537;-75
2021/03/29 09:56:55;;;;;;;13.97;5.73;;;;;;;10.19;78.73;101900.11;4780812;60;1140614;-73
2021/03/29 10:02:01;;;;;;;20.53;8.90;;;;;;;10.31;79.34;101906.05;4742133;61;1140514;-77
2021/03/29 10:07:13;;;;;;;9.80;4.33;;;;;;;10.37;78.46;101912.34;4747710;61;1140420;-79
2021/03/29 10:12:33;;;;;;;10.40;4.73;;;;;;;10.46;78.67;101905.68;4789855;59;1138753;-80
2021/03/29 10:17:39;;;;;;;10.23;4.70;;;;;;;10.56;78.22;101906.86;4897804;59;1141109;-76
2021/03/29 10:22:44;;;;;;;24.27;6.23;;;;;;;10.67;78.33;101911.59;4920026;58;1140817;-76
2021/03/29 10:27:57;;;;;;;9.17;4.17;;;;;;;10.75;77.54;101904.05;4924549;59;1140829;-77
2021/03/29 10:33:08;;;;;;;23.90;6.47;;;;;;;10.80;77.97;101904.66;4925148;58;1138762;-77
2021/03/29 10:38:13;;;;;;;20.13;6.90;;;;;;;10.88;78.85;101899.77;4923118;58;1140853;-78
2021/03/29 10:43:19;;;;;;;9.38;3.90;;;;;;;10.90;77.98;101898.75;4922700;59;1140690;-77
2021/03/29 10:48:24;;;;;;;9.27;3.63;;;;;;;10.90;77.42;101902.72;4923802;58;1138847;-79
2021/03/29 10:53:30;;;;;;;11.53;4.87;;;;;;;10.84;76.89;101896.47;4923474;59;1138712;-75
2021/03/29 10:58:36;;;;;;;13.88;4.35;;;;;;;10.84;78.68;101900.91;4922187;58;1140680;-76
2021/03/29 11:03:42;;;;;;;15.67;4.47;;;;;;;10.86;77.63;101877.36;4933756;59;1140864;-76
2021/03/29 11:08:47;;;;;;;16.37;4.40;;;;;;;10.89;78.15;101875.02;4935799;59;1140546;-76
2021/03/29 11:13:53;;;;;;;12.10;5.30;;;;;;;10.95;78.73;101878.64;4932844;58;1142836;-75
2021/03/29 11:18:58;;;;;;;17.10;5.85;;;;;;;10.97;77.89;101866.17;4936307;58;1140545;-79
2021/03/29 11:24:04;;;;;;;17.40;4.22;;;;;;;10.91;77.94;101866.52;4934488;57;1140756;-79
2021/03/29 11:29:10;;;;;;;14.88;6.26;;;;;;;10.86;78.38;101867.23;4851050;60;1140427;-77
2021/03/29 11:34:15;;;;;;;21.77;7.67;;;;;;;10.81;79.12;101867.53;4850630;60;1140935;-75
2021/03/29 11:39:21;;;;;;;20.73;9.70;;;;;;;10.74;79.67;101871.91;4840463;59;1140805;-76
2021/03/29 11:44:27;;;;;;;26.20;13.57;;;;;;;10.75;79.82;101864.36;4916455;59;1140818;-77
2021/03/29 11:49:32;;;;;;;24.53;16.40;;;;;;;10.81;80.17;101852.97;4915923;59;1143039;-77
2021/03/29 11:54:38;;;;;;;11.48;5.40;;;;;;;10.85;80.76;101841.71;4836547;59;1142884;-80
2021/03/29 11:59:47;;;;;;;41.07;12.20;;;;;;;10.90;80.28;101840.52;4874475;58;1140951;-77
2021/03/29 12:05:04;;;;;;;21.03;4.47;;;;;;;10.99;80.19;101833.00;4917922;58;1142855;-72
2021/03/29 12:15:24;;;;;;;18.70;5.37;;;;;;;11.12;80.03;101825.57;4876064;58;1140857;-73
2021/03/29 12:20:30;;;;;;;12.18;5.10;;;;;;;11.14;79.93;101815.74;4786987;59;1140525;-76
2021/03/29 12:25:36;;;;;;;18.93;7.77;;;;;;;11.22;79.79;101804.68;4820769;58;1140783;-76
2021/03/29 12:30:43;;;;;;;12.23;4.73;;;;;;;11.32;79.30;101806.30;4867327;58;1140767;-78
2021/03/29 12:35:49;;;;;;;16.55;5.42;;;;;;;11.36;78.74;101798.08;4860239;58;1140931;-76
2021/03/29 12:40:58;;;;;;;16.67;5.40;;;;;;;11.37;78.41;101790.98;4904613;58;1140781;-75
2021/03/29 12:46:06;;;;;;;17.33;7.03;;;;;;;11.42;78.20;101788.45;4842274;58;1140678;-76
2021/03/29 12:51:13;;;;;;;15.50;6.70;;;;;;;11.48;77.49;101788.52;4845914;58;1141036;-73
2021/03/29 12:56:19;;;;;;;18.27;4.97;;;;;;;11.53;77.50;101779.83;4810512;59;1140876;-74
2021/03/29 13:01:25;;;;;;;22.77;7.90;;;;;;;11.56;76.71;101767.73;4814569;59;1140805;-79
2021/03/29 13:11:45;;;;;;;26.17;12.93;;;;;;;11.82;75.88;101763.48;4559045;62;1140968;-75
2021/03/29 13:16:50;;;;;;;27.97;13.40;;;;;;;11.96;76.37;101764.78;4765580;59;1143075;-78
2021/03/29 13:21:55;;;;;;;24.23;13.67;;;;;;;12.09;75.38;101765.70;4806152;59;1152719;-78
2021/03/29 13:27:02;;;;;;;16.60;8.33;;;;;;;12.22;73.79;101749.87;4806000;59;1143266;-75
2021/03/29 13:32:08;;;;;;;16.87;5.92;;;;;;;12.33;72.51;101760.15;4756866;59;1141031;-77
2021/03/29 13:37:14;;;;;;;20.63;8.10;;;;;;;12.42;71.40;101760.01;4760515;59;1140963;-76
2021/03/29 13:42:20;;;;;;;13.60;5.87;;;;;;;12.56;71.96;101760.42;4790568;59;1140888;-76
2021/03/29 13:47:27;;;;;;;12.37;4.93;;;;;;;12.79;70.20;101754.92;4823394;58;1140752;-79
2021/03/29 13:52:34;;;;;;;14.87;5.77;;;;;;;12.79;70.20;101754.92;4948500;57;1140938;-77
2021/03/29 13:57:41;;;;;;;17.35;6.92;;;;;;;12.85;70.75;101755.82;4961710;57;1140907;-76
2021/03/29 14:02:49;;;;;;;21.50;6.77;;;;;;;12.94;70.87;101756.55;4966617;57;1140754;-76
2021/03/29 14:07:55;;;;;;;21.17;9.57;;;;;;;13.05;70.39;101754.00;4965897;56;1140767;-77
2021/03/29 14:13:01;;;;;;;27.40;11.10;;;;;;;13.14;70.32;101756.02;4965852;57;1140891;-77
2021/03/29 14:18:07;;;;;;;20.12;7.67;;;;;;;13.23;69.72;101753.26;4954202;58;1143349;-78
2021/03/29 14:23:13;;;;;;;13.13;5.87;;;;;;;13.25;69.80;101746.89;4953706;57;1140807;-80
2021/03/29 14:28:18;;;;;;;21.63;7.50;;;;;;;13.25;69.49;101747.36;4922806;58;1140807;-80
2021/03/29 14:33:24;;;;;;;17.23;6.60;;;;;;;13.26;70.02;101735.30;4922036;59;1140845;-76
2021/03/29 14:44:20;;;;;;;11.47;4.23;;;;;;;13.28;70.05;101748.48;4922299;59;1140976;-76
2021/03/29 14:49:11;;;;;;;11.55;3.62;;;;;;;13.25;69.53;101744.70;4979029;57;1140880;-76
2021/03/29 14:54:16;;;;;;;14.67;3.53;;;;;;;13.23;67.56;101757.24;5016279;57;1140583;-74
2021/03/29 14:59:25;;;;;;;12.27;2.90;;;;;;;13.14;68.81;101756.02;4943987;57;1140613;-76
2021/03/29 15:04:44;;;;;;;12.37;2.97;;;;;;;13.04;69.55;101749.17;4916200;58;1140868;-76
2021/03/29 15:09:50;;;;;;;15.53;3.53;;;;;;;12.96;70.04;101748.86;4916489;59;1140871;-73
2021/03/29 15:14:55;;;;;;;12.37;3.60;;;;;;;12.86;70.68;101742.45;4924639;58;1140367;-76
2021/03/29 15:20:01;;;;;;;9.40;2.13;;;;;;;12.80;71.22;101740.70;4935045;58;1140621;-74
2021/03/29 15:25:08;;;;;;;11.83;2.60;;;;;;;12.72;71.06;101739.88;4935338;57;1138546;-74
2021/03/29 15:30:14;;;;;;;8.15;2.08;;;;;;;12.70;71.41;101755.05;4932011;58;1140636;-78
2021/03/29 15:35:20;;;;;;;6.27;2.30;;;;;;;12.65;71.86;101763.81;4882076;58;1138754;-79
2021/03/29 15:40:25;;;;;;;10.63;2.93;;;;;;;12.53;72.93;101773.89;4857161;59;1138817;-76
2021/03/29 15:45:31;;;;;;;12.07;4.47;;;;;;;12.40;73.19;101775.65;4858976;59;1140458;-81
2021/03/29 15:50:37;;;;;;;18.73;7.17;;;;;;;12.29;73.98;101775.03;4862802;59;1140622;-76
2021/03/29 15:55:42;;;;;;;160.37;110.20;;;;;;;12.18;74.19;101773.55;4779549;60;1140795;-77
2021/03/29 16:00:48;;;;;;;25.67;16.63;;;;;;;12.14;74.63;101772.89;4863317;59;1147146;-75
2021/03/29 16:05:54;;;;;;;24.27;10.50;;;;;;;12.12;74.89;101777.44;4866566;59;1142786;-78
2021/03/29 16:10:59;;;;;;;46.30;27.63;;;;;;;12.15;74.96;101774.59;4899788;58;1142830;-77
2021/03/29 16:16:05;;;;;;;115.30;47.53;;;;;;;12.21;75.08;101760.95;4841081;59;1142884;-77
2021/03/29 16:21:11;;;;;;;44.00;17.45;;;;;;;12.24;75.29;101758.55;4864287;59;1144763;-75
2021/03/29 16:26:26;;;;;;;28.12;10.72;;;;;;;12.20;75.37;101761.91;4916607;58;1142651;-77
2021/03/29 16:31:30;;;;;;;97.02;42.38;;;;;;;12.19;75.43;101760.20;4918842;58;1143197;-78
2021/03/29 16:36:36;;;;;;;128.67;53.03;;;;;;;12.17;75.43;101767.88;4936428;59;1142504;-76
2021/03/29 16:41:41;;;;;;;186.23;65.97;;;;;;;12.12;75.61;101768.63;4936687;59;1144776;-76
2021/03/29 16:46:47;;;;;;;84.47;30.37;;;;;;;12.08;75.98;101772.42;4936478;59;1144556;-78
2021/03/29 16:51:52;;;;;;;99.63;41.00;;;;;;;12.04;76.26;101759.00;4936762;59;1142990;-78
2021/03/29 16:56:58;;;;;;;67.47;30.63;;;;;;;12.08;76.57;101769.77;4936643;59;1142549;-76
2021/03/29 17:02:05;;;;;;;66.90;34.33;;;;;;;12.12;76.59;101772.61;4936839;59;1142954;-76
2021/03/29 17:07:11;;;;;;;40.10;21.50;;;;;;;12.19;76.72;101771.28;4936335;59;1142612;-77
2021/03/29 17:12:19;;;;;;;36.85;18.45;;;;;;;12.23;76.75;101762.16;4936874;59;1142535;-76
2021/03/29 17:17:24;;;;;;;21.40;11.80;;;;;;;12.23;76.79;101763.48;4936655;59;1142464;-76
2021/03/29 17:22:30;;;;;;;30.63;17.77;;;;;;;12.22;76.81;101770.58;4936567;59;1142969;-75
2021/03/29 17:27:37;;;;;;;190.17;60.67;;;;;;;12.20;76.73;101761.05;4936536;59;1142753;-75
2021/03/29 17:32:42;;;;;;;129.57;48.73;;;;;;;12.19;76.73;101762.84;4925022;59;1145064;-76
2021/03/29 17:37:49;;;;;;;121.57;63.63;;;;;;;12.20;76.92;101767.67;4905980;58;1144981;-75
2021/03/29 17:42:55;;;;;;;112.37;52.77;;;;;;;12.17;77.24;101775.83;4906107;58;1144790;-76
2021/03/29 17:48:01;;;;;;;214.03;82.03;;;;;;;12.10;77.11;101785.96;4907900;59;1144929;-78
2021/03/29 17:53:11;;;;;;;98.72;40.58;;;;;;;12.07;77.24;101782.68;4906144;58;1145129;-78
2021/03/29 17:58:18;;;;;;;91.23;40.73;;;;;;;12.10;77.09;101793.06;4829973;60;1142768;-78
2021/03/29 18:03:24;;;;;;;113.40;49.30;;;;;;;11.98;77.24;101792.05;4906391;59;1142845;-76
2021/03/29 18:08:30;;;;;;;50.30;24.07;;;;;;;11.88;77.45;101794.91;4906545;59;1144624;-79
2021/03/29 18:13:36;;;;;;;72.00;35.70;;;;;;;11.85;77.90;101807.03;4906487;59;1142484;-75
2021/03/29 18:18:42;;;;;;;131.50;51.57;;;;;;;11.84;78.01;101808.83;4906198;59;1142538;-74
2021/03/29 18:23:47;;;;;;;82.97;40.97;;;;;;;11.89;78.13;101821.33;4905926;58;1145083;-79
2021/03/29 18:28:53;;;;;;;87.07;42.67;;;;;;;11.95;78.28;101822.25;4903163;59;1142986;-79
2021/03/29 18:33:59;;;;;;;75.23;39.90;;;;;;;12.04;78.50;101831.45;4833995;59;1143064;-75
2021/03/29 18:39:07;;;;;;;124.33;53.70;;;;;;;12.03;78.34;101827.09;4932799;58;1143020;-76
2021/03/29 18:44:12;;;;;;;81.35;41.68;;;;;;;11.93;77.96;101832.09;4859490;60;1145117;-75
2021/03/29 18:49:18;;;;;;;51.75;23.90;;;;;;;11.89;78.04;101839.89;4859636;60;1142468;-74
2021/03/29 18:54:24;;;;;;;118.95;50.25;;;;;;;11.88;78.15;101831.55;4859601;60;1142506;-75
2021/03/29 18:59:32;;;;;;;56.00;24.70;;;;;;;11.87;78.12;101831.17;4866020;58;1144547;-74
2021/03/29 19:04:37;;;;;;;53.80;25.07;;;;;;;11.75;78.05;101833.23;4935071;59;1142627;-76
2021/03/29 19:09:43;;;;;;;59.67;31.80;;;;;;;11.63;78.34;101829.98;4937295;59;1142644;-73
2021/03/29 19:14:49;;;;;;;42.97;21.93;;;;;;;11.54;78.35;101831.41;4934137;58;1143152;-74
2021/03/29 19:19:54;;;;;;;69.07;33.93;;;;;;;11.50;78.38;101832.53;4934433;58;1142625;-75
2021/03/29 19:25:00;;;;;;;50.63;30.60;;;;;;;11.45;78.68;101831.13;4935705;59;1142958;-75
2021/03/29 19:30:08;;;;;;;50.27;28.23;;;;;;;11.45;78.68;101831.13;4937135;59;1150471;-75
2021/03/29 19:35:14;;;;;;;35.17;17.92;;;;;;;11.41;78.64;101832.25;4936639;58;1142943;-75
2021/03/29 19:40:20;;;;;;;34.35;16.52;;;;;;;11.42;78.55;101838.78;4933051;59;1142608;-77
2021/03/29 19:45:26;;;;;;;32.13;13.53;;;;;;;11.45;78.46;101837.28;4933023;59;1142835;-75
2021/03/29 19:50:32;;;;;;;33.63;15.00;;;;;;;11.48;78.37;101838.39;4930822;58;1142821;-75
2021/03/29 19:55:37;;;;;;;22.57;10.30;;;;;;;11.47;78.26;101832.71;4930160;58;1142812;-77
2021/03/29 20:00:45;;;;;;;27.25;12.73;;;;;;;11.45;78.08;101836.42;4933377;58;1143069;-75
2021/03/29 20:06:00;;;;;;;42.47;22.30;;;;;;;11.45;77.94;101832.45;4928267;59;1142879;-75
2021/03/29 20:11:00;;;;;;;29.67;14.23;;;;;;;11.48;77.81;101837.06;4918618;58;1142963;-75
2021/03/29 20:16:06;;;;;;;29.27;14.27;;;;;;;11.53;78.08;101831.50;4934625;58;1143163;-75
2021/03/29 20:21:12;;;;;;;54.35;25.50;;;;;;;11.53;77.91;101831.50;4879739;58;1142647;-75
2021/03/29 20:26:18;;;;;;;39.67;20.97;;;;;;;11.53;77.98;101840.77;4907023;59;1142508;-74
2021/03/29 20:31:23;;;;;;;47.07;21.03;;;;;;;11.55;77.73;101849.02;4900337;59;1142557;-75
2021/03/29 20:36:30;;;;;;;37.13;17.93;;;;;;;11.57;77.62;101842.30;4896707;58;1142573;-74
2021/03/29 20:41:36;;;;;;;31.93;18.77;;;;;;;11.58;77.69;101844.86;4867640;58;1142498;-73
2021/03/29 20:46:41;;;;;;;39.73;21.67;;;;;;;11.59;77.68;101849.69;4866339;58;1143153;-75
2021/03/29 20:51:47;;;;;;;32.23;17.57;;;;;;;11.56;77.63;101849.87;4869653;59;1142455;-75
2021/03/29 20:56:53;;;;;;;42.20;22.30;;;;;;;11.54;77.26;101848.62;4880218;58;1143000;-75
2021/03/29 21:01:59;;;;;;;74.33;39.37;;;;;;;11.53;77.31;101845.59;4905031;58;1142697;-75
2021/03/29 21:07:05;;;;;;;46.87;20.43;;;;;;;11.54;77.38;101845.12;4809663;59;1142557;-76
2021/03/29 21:12:11;;;;;;;59.18;21.95;;;;;;;11.54;77.47;101840.69;4827747;59;1142840;-75
2021/03/29 21:17:16;;;;;;;66.20;34.13;;;;;;;11.52;77.48;101841.25;4822129;59;1142675;-74
2021/03/29 21:22:22;;;;;;;29.27;15.20;;;;;;;11.52;77.37;101845.22;4827067;59;1142551;-74
2021/03/29 21:27:27;;;;;;;36.30;16.80;;;;;;;11.54;77.46;101838.50;4903250;59;1142877;-73
2021/03/29 21:32:59;;;;;;;33.23;15.40;;;;;;;11.53;77.53;101846.92;4904995;59;1142636;-73
2021/03/29 21:38:05;;;;;;;46.77;21.12;;;;;;;11.44;77.50;101842.19;4913905;58;1142863;-75
2021/03/29 21:43:13;;;;;;;48.83;20.90;;;;;;;11.35;77.73;101842.72;4893122;59;1142839;-73
2021/03/29 21:48:18;;;;;;;48.37;21.13;;;;;;;11.30;77.74;101839.52;4906599;59;1143281;-74
2021/03/29 21:53:24;;;;;;;58.03;22.77;;;;;;;11.25;77.79;101841.58;4906760;59;1142688;-73
2021/03/29 21:58:29;;;;;;;66.37;29.33;;;;;;;11.24;77.80;101853.11;4906093;59;1142773;-75
2021/03/29 22:03:37;;;;;;;72.80;32.47;;;;;;;11.24;78.28;101851.32;4906527;59;1142643;-73
2021/03/29 22:08:42;;;;;;;79.50;32.07;;;;;;;11.25;78.62;101847.73;4906439;59;1142682;-74
2021/03/29 22:13:48;;;;;;;63.40;26.63;;;;;;;11.22;78.39;101851.88;4906374;59;1142547;-74
2021/03/29 22:18:54;;;;;;;55.43;24.57;;;;;;;11.16;78.12;101852.22;4906220;59;1142497;-75
2021/03/29 22:24:00;;;;;;;64.60;25.97;;;;;;;11.08;78.17;101854.95;4906287;59;1142446;-74
2021/03/29 22:29:11;;;;;;;58.33;22.62;;;;;;;11.04;78.63;101851.63;4910482;59;1142601;-76
2021/03/29 22:34:21;;;;;;;57.27;23.90;;;;;;;11.09;78.82;101857.52;4905746;59;1142692;-74
2021/03/29 22:44:36;;;;;;;36.07;15.47;;;;;;;11.13;79.20;101874.08;4883181;59;1142539;-73
2021/03/29 22:49:42;;;;;;;28.57;13.27;;;;;;;11.15;78.97;101873.53;4883525;57;1142633;-73
2021/03/29 22:54:47;;;;;;;27.50;13.00;;;;;;;11.18;78.97;101881.27;4906065;59;1142630;-74
2021/03/29 22:59:53;;;;;;;32.23;15.70;;;;;;;11.19;79.00;101878.53;4910305;59;1142619;-74
2021/03/29 23:04:58;;;;;;;30.50;15.43;;;;;;;11.17;79.02;101876.44;4910443;59;1142442;-74
2021/03/29 23:10:05;;;;;;;37.63;16.07;;;;;;;11.10;78.83;101877.76;4910482;59;1142636;-74
2021/03/29 23:15:12;;;;;;;42.30;16.27;;;;;;;11.08;78.96;101880.11;4910326;59;1142448;-74
2021/03/29 23:20:18;;;;;;;35.03;14.68;;;;;;;11.06;78.80;101887.28;4910437;59;1142858;-73
2021/03/29 23:25:23;;;;;;;34.70;15.10;;;;;;;11.07;79.10;101888.52;4904853;59;1142634;-75
2021/03/29 23:30:29;;;;;;;38.63;17.40;;;;;;;11.11;79.38;101888.73;4910317;59;1142873;-75